createdAt,value
2023-01-28T00:02:00.573Z,156473.16
2023-01-28T00:04:28.372Z,156463.91
2023-01-28T00:06:56.416Z,156450.66
2023-01-28T00:09:24.524Z,156454.59
2023-01-28T00:11:52.566Z,156459.91
2023-01-28T00:14:20.660Z,156465.22
2023-01-28T00:16:48.677Z,156462.59
2023-01-28T00:19:16.360Z,156470.53
2023-01-28T00:21:44.689Z,156473.16
2023-01-28T00:24:12.608Z,156462.59
2023-01-28T00:26:41.057Z,156459.91
2023-01-28T00:29:08.846Z,156462.59
2023-01-28T00:31:38.106Z,156470.53
2023-01-28T00:34:06.101Z,156471.84
2023-01-28T00:36:34.049Z,156466.53
2023-01-28T00:39:02.517Z,156465.22
2023-01-28T00:41:30.809Z,156451.97
2023-01-28T00:43:59.842Z,156475.81
2023-01-28T00:46:28.511Z,156481.09
2023-01-28T00:48:57.165Z,156491.69
2023-01-28T00:51:25.718Z,156467.84
2023-01-28T00:53:54.546Z,156475.81
2023-01-28T00:56:22.870Z,156469.19
2023-01-28T00:58:50.767Z,156467.84
2023-01-28T01:01:27.068Z,156478.44
2023-01-28T01:04:03.333Z,156467.84
2023-01-28T01:06:37.550Z,156451.97
2023-01-28T01:09:08.527Z,156467.84
2023-01-28T01:11:37.045Z,156454.59
2023-01-28T01:14:05.633Z,156454.59
2023-01-28T01:16:35.501Z,156445.34
2023-01-28T01:19:03.863Z,156471.84
2023-01-28T01:21:32.602Z,156474.47
2023-01-28T01:24:00.663Z,156463.91
2023-01-28T01:26:29.018Z,156438.72
2023-01-28T01:28:58.504Z,156453.28
2023-01-28T01:31:26.908Z,156475.81
2023-01-28T01:33:54.782Z,156483.75
2023-01-28T01:36:23.851Z,156478.44
2023-01-28T01:38:55.709Z,156470.53
2023-01-28T01:41:28.222Z,156465.22
2023-01-28T01:44:01.435Z,156465.22
2023-01-28T01:46:49.806Z,156473.16
2023-01-28T01:49:24.307Z,156475.81
2023-01-28T01:51:55.690Z,156469.19
2023-01-28T01:54:24.910Z,156465.22
2023-01-28T01:56:53.869Z,156465.22
2023-01-28T01:59:28.799Z,156471.84
2023-01-28T02:01:58.379Z,156475.81
2023-01-28T02:04:29.935Z,156470.53
2023-01-28T02:07:01.412Z,156478.44
2023-01-28T02:09:31.844Z,156482.41
2023-01-28T02:12:04.940Z,156478.44
2023-01-28T02:14:35.816Z,156474.47
2023-01-28T02:17:04.076Z,156466.53
2023-01-28T02:19:49.244Z,156478.44
2023-01-28T02:22:32.400Z,156471.84
2023-01-28T02:25:19.223Z,156462.59
2023-01-28T02:28:25.261Z,156470.53
2023-01-28T02:31:13.784Z,156469.19
2023-01-28T02:34:08.957Z,156448.03
2023-01-28T02:37:21.945Z,156466.53
2023-01-28T02:39:57.204Z,156451.97
2023-01-28T02:42:31.436Z,156454.59
2023-01-28T02:44:59.609Z,156440.03
2023-01-28T02:47:46.117Z,156420.22
2023-01-28T02:50:16.670Z,156416.25
2023-01-28T02:53:13.699Z,156412.25
2023-01-28T02:55:41.421Z,156420.22
2023-01-28T02:58:19.115Z,156417.56
2023-01-28T03:01:18.170Z,156420.22
2023-01-28T03:03:59.486Z,156424.16
2023-01-28T03:06:35.034Z,156428.16
2023-01-28T03:09:24.802Z,156428.16
2023-01-28T03:12:24.709Z,156436.09
2023-01-28T03:15:17.987Z,156418.88
2023-01-28T03:18:30.833Z,156425.47
2023-01-28T03:22:02.400Z,156424.16
2023-01-28T03:25:05.154Z,156418.88
2023-01-28T03:28:12.416Z,156418.88
2023-01-28T03:31:05.729Z,156414.91
2023-01-28T03:34:08.777Z,156420.22
2023-01-28T03:36:50.825Z,156430.78
2023-01-28T03:39:41.880Z,156429.47
2023-01-28T03:42:14.347Z,156428.16
2023-01-28T03:45:05.598Z,156430.78
2023-01-28T03:47:34.420Z,156437.41
2023-01-28T03:50:06.926Z,156429.47
2023-01-28T03:52:42.874Z,156433.41
2023-01-28T03:55:25.969Z,156436.09
2023-01-28T03:57:55.225Z,156446.66
2023-01-28T04:00:23.972Z,156453.28
2023-01-28T04:02:52.074Z,156466.53
2023-01-28T04:05:23.266Z,156454.59
2023-01-28T04:07:55.867Z,156454.59
2023-01-28T04:10:50.072Z,156450.66
2023-01-28T04:13:27.157Z,156461.22
2023-01-28T04:15:55.254Z,156438.72
2023-01-28T04:18:27.611Z,156469.19
2023-01-28T04:20:58.217Z,156461.22
2023-01-28T04:23:26.509Z,156451.97
2023-01-28T04:25:54.534Z,156437.41
2023-01-28T04:28:24.229Z,156450.66
2023-01-28T04:30:54.878Z,156442.72
2023-01-28T04:33:37.965Z,156444.03
2023-01-28T04:36:32.106Z,156454.59
2023-01-28T04:39:23.418Z,156450.66
2023-01-28T04:42:14.033Z,156455.97
2023-01-28T04:44:57.735Z,156449.34
2023-01-28T04:47:44.176Z,156442.72
2023-01-28T04:50:38.399Z,156457.28
2023-01-28T04:53:29.863Z,156444.03
2023-01-28T04:56:00.109Z,156465.22
2023-01-28T04:58:31.403Z,156446.66
2023-01-28T05:01:04.687Z,156451.97
2023-01-28T05:03:35.993Z,156442.72
2023-01-28T05:06:06.759Z,156445.34
2023-01-28T05:08:42.461Z,156449.34
2023-01-28T05:11:11.096Z,156445.34
2023-01-28T05:13:40.253Z,156451.97
2023-01-28T05:16:13.945Z,156446.66
2023-01-28T05:18:44.675Z,156430.78
2023-01-28T05:21:16.482Z,156436.09
2023-01-28T05:23:45.236Z,156436.09
2023-01-28T05:26:13.557Z,156446.66
2023-01-28T05:28:41.381Z,156444.03
2023-01-28T05:31:10.576Z,156436.09
2023-01-28T05:33:39.084Z,156448.03
2023-01-28T05:36:10.679Z,156458.59
2023-01-28T05:38:39.613Z,156450.66
2023-01-28T05:41:07.965Z,156449.34
2023-01-28T05:43:37.178Z,156470.53
2023-01-28T05:46:17.255Z,156479.75
2023-01-28T05:49:08.997Z,156503.56
2023-01-28T05:52:09.544Z,156512.88
2023-01-28T05:54:37.712Z,156515.50
2023-01-28T05:57:05.832Z,156516.81
2023-01-28T05:59:34.607Z,156510.19
2023-01-28T06:02:03.117Z,156512.88
2023-01-28T06:04:30.979Z,156503.56
2023-01-28T06:07:00.474Z,156485.06
2023-01-28T06:09:28.979Z,156491.69
2023-01-28T06:11:57.729Z,156475.81
2023-01-28T06:14:26.409Z,156465.22
2023-01-28T06:17:27.385Z,156462.59
2023-01-28T06:20:22.646Z,156448.03
2023-01-28T06:22:52.722Z,156465.22
2023-01-28T06:25:21.137Z,156449.34
2023-01-28T06:27:49.173Z,156434.78
2023-01-28T06:30:17.699Z,156445.34
2023-01-28T06:32:46.093Z,156453.28
2023-01-28T06:35:13.896Z,156451.97
2023-01-28T06:37:42.394Z,156442.72
2023-01-28T06:40:11.032Z,156432.09
2023-01-28T06:42:39.464Z,156441.41
2023-01-28T06:45:07.431Z,156433.41
2023-01-28T06:47:35.887Z,156437.41
2023-01-28T06:50:03.706Z,156438.72
2023-01-28T06:52:32.050Z,156442.72
2023-01-28T06:54:59.882Z,156442.72
2023-01-28T06:57:28.411Z,156434.78
2023-01-28T06:59:56.203Z,156440.03
2023-01-28T07:02:27.499Z,156436.09
2023-01-28T07:04:55.834Z,156430.78
2023-01-28T07:07:23.986Z,156437.41
2023-01-28T07:09:51.639Z,156438.72
2023-01-28T07:12:20.245Z,156424.16
2023-01-28T07:14:48.004Z,156433.41
2023-01-28T07:17:15.991Z,156430.78
2023-01-28T07:19:43.784Z,156429.47
2023-01-28T07:22:12.026Z,156422.84
2023-01-28T07:24:39.694Z,156413.59
2023-01-28T07:27:07.753Z,156403.00
2023-01-28T07:29:35.817Z,156407.00
2023-01-28T07:32:05.576Z,156413.59
2023-01-28T07:34:34.405Z,156424.16
2023-01-28T07:37:02.456Z,156428.16
2023-01-28T07:39:30.113Z,156422.84
2023-01-28T07:41:59.076Z,156432.09
2023-01-28T07:44:37.768Z,156430.78
2023-01-28T07:47:06.979Z,156433.41
2023-01-28T07:49:35.053Z,156440.03
2023-01-28T07:52:03.180Z,156428.16
2023-01-28T07:54:31.183Z,156438.72
2023-01-28T07:56:59.526Z,156428.16
2023-01-28T07:59:27.506Z,156422.84
2023-01-28T08:01:55.622Z,156422.84
2023-01-28T08:04:23.493Z,156409.63
2023-01-28T08:06:52.666Z,156416.25
2023-01-28T08:09:20.424Z,156418.88
2023-01-28T08:11:48.527Z,156420.22
2023-01-28T08:14:16.215Z,156420.22
2023-01-28T08:16:44.442Z,156429.47
2023-01-28T08:19:12.510Z,156433.41
2023-01-28T08:21:40.629Z,156410.94
2023-01-28T08:24:08.727Z,156432.09
2023-01-28T08:26:36.955Z,156441.41
2023-01-28T08:29:05.977Z,156442.72
2023-01-28T08:31:34.466Z,156449.34
2023-01-28T08:34:02.493Z,156449.34
2023-01-28T08:36:30.978Z,156440.03
2023-01-28T08:38:58.841Z,156445.34
2023-01-28T08:41:28.000Z,156438.72
2023-01-28T08:43:55.777Z,156444.03
2023-01-28T08:46:24.447Z,156454.59
2023-01-28T08:48:52.422Z,156449.34
2023-01-28T08:51:21.535Z,156437.41
2023-01-28T08:53:49.301Z,156465.22
2023-01-28T08:56:17.903Z,156461.22
2023-01-28T08:58:46.355Z,156449.34
2023-01-28T09:01:14.717Z,156453.28
2023-01-28T09:03:43.004Z,156459.91
2023-01-28T09:06:11.448Z,156433.41
2023-01-28T09:08:40.087Z,156454.59
2023-01-28T09:11:08.934Z,156448.03
2023-01-28T09:13:37.521Z,156449.34
2023-01-28T09:16:07.053Z,156444.03
2023-01-28T09:18:35.805Z,156453.28
2023-01-28T09:21:06.663Z,156445.34
2023-01-28T09:23:39.239Z,156450.66
2023-01-28T09:26:07.643Z,156436.09
2023-01-28T09:28:35.617Z,156440.03
2023-01-28T09:31:09.773Z,156438.72
2023-01-28T09:33:38.618Z,156438.72
2023-01-28T09:36:08.532Z,156441.41
2023-01-28T09:38:37.039Z,156393.75
2023-01-28T09:41:25.623Z,156440.03
2023-01-28T09:44:04.761Z,156445.34
2023-01-28T09:46:36.702Z,156432.09
2023-01-28T09:49:16.219Z,156453.28
2023-01-28T09:51:50.131Z,156442.72
2023-01-28T09:54:46.950Z,156446.66
2023-01-28T09:57:21.399Z,156444.03
2023-01-28T09:59:51.106Z,156449.34
2023-01-28T10:02:28.738Z,156457.28
2023-01-28T10:05:04.333Z,156462.59
2023-01-28T10:07:40.836Z,156469.19
2023-01-28T10:10:27.935Z,156470.53
2023-01-28T10:13:34.961Z,156491.69
2023-01-28T10:16:16.586Z,156504.94
2023-01-28T10:18:53.514Z,156498.31
2023-01-28T10:22:03.510Z,156491.69
2023-01-28T10:24:38.543Z,156498.31
2023-01-28T10:27:17.222Z,156508.88
2023-01-28T10:29:46.765Z,156506.25
2023-01-28T10:32:29.895Z,156490.38
2023-01-28T10:35:02.325Z,156475.81
2023-01-28T10:37:34.323Z,156487.72
2023-01-28T10:40:03.657Z,156491.69
2023-01-28T10:42:35.193Z,156502.25
2023-01-28T10:45:07.953Z,156508.88
2023-01-28T10:47:42.248Z,156515.50
2023-01-28T10:50:21.783Z,156507.56
2023-01-28T10:53:00.173Z,156497.00
2023-01-28T10:55:31.261Z,156495.63
2023-01-28T10:57:59.757Z,156491.69
2023-01-28T11:00:31.181Z,156485.06
2023-01-28T11:02:59.802Z,156489.03
2023-01-28T11:05:30.953Z,156506.25
2023-01-28T11:08:15.573Z,156507.56
2023-01-28T11:10:44.248Z,156510.19
2023-01-28T11:13:22.524Z,156514.19
2023-01-28T11:15:50.769Z,156499.63
2023-01-28T11:18:22.164Z,156500.94
2023-01-28T11:20:53.489Z,156493.00
2023-01-28T11:23:27.937Z,156483.75
2023-01-28T11:26:16.768Z,156495.63
2023-01-28T11:28:44.977Z,156482.41
2023-01-28T11:31:18.091Z,156483.75
2023-01-28T11:33:52.622Z,156489.03
2023-01-28T11:36:22.749Z,156504.94
2023-01-28T11:39:00.644Z,156519.50
2023-01-28T11:41:37.287Z,156518.19
2023-01-28T11:44:25.180Z,156511.56
2023-01-28T11:47:31.080Z,156502.25
2023-01-28T11:50:21.142Z,156520.81
2023-01-28T11:53:06.815Z,156520.81
2023-01-28T11:55:59.067Z,156522.13
2023-01-28T11:59:10.164Z,156518.19
2023-01-28T12:02:13.301Z,156511.56
2023-01-28T12:04:56.591Z,156512.88
2023-01-28T12:08:02.586Z,156507.56
2023-01-28T12:10:30.299Z,156514.19
2023-01-28T12:13:17.166Z,156520.81
2023-01-28T12:15:52.308Z,156532.75
2023-01-28T12:18:42.779Z,156552.56
2023-01-28T12:21:43.385Z,156560.56
2023-01-28T12:24:15.432Z,156569.81
2023-01-28T12:26:56.243Z,156564.50
2023-01-28T12:29:38.609Z,156573.78
2023-01-28T12:32:41.758Z,156576.44
2023-01-28T12:35:51.590Z,156563.19
2023-01-28T12:38:26.754Z,156568.47
2023-01-28T12:40:59.543Z,156559.19
2023-01-28T12:43:38.212Z,156551.25
2023-01-28T12:46:24.763Z,156542.00
2023-01-28T12:49:00.141Z,156542.00
2023-01-28T12:51:33.611Z,156547.31
2023-01-28T12:54:05.035Z,156547.31
2023-01-28T12:56:36.199Z,156540.69
2023-01-28T12:59:22.468Z,156530.06
2023-01-28T13:02:12.750Z,156536.69
2023-01-28T13:04:52.260Z,156531.38
2023-01-28T13:07:49.874Z,156532.75
2023-01-28T13:10:27.548Z,156507.56
2023-01-28T13:12:56.905Z,156516.81
2023-01-28T13:15:24.880Z,156518.19
2023-01-28T13:18:01.527Z,156503.56
2023-01-28T13:20:50.223Z,156504.94
2023-01-28T13:23:38.964Z,156503.56
2023-01-28T13:26:11.620Z,156502.25
2023-01-28T13:28:40.112Z,156489.03
2023-01-28T13:31:10.380Z,156494.31
2023-01-28T13:33:40.596Z,156499.63
2023-01-28T13:36:27.947Z,156507.56
2023-01-28T13:39:22.430Z,156478.44
2023-01-28T13:41:55.774Z,156499.63
2023-01-28T13:44:30.509Z,156497.00
2023-01-28T13:47:31.743Z,156495.63
2023-01-28T13:50:13.953Z,156481.09
2023-01-28T13:53:04.895Z,156470.53
2023-01-28T13:55:44.780Z,156481.09
2023-01-28T13:58:37.338Z,156490.38
2023-01-28T14:01:31.811Z,156489.03
2023-01-28T14:04:14.913Z,156497.00
2023-01-28T14:06:42.944Z,156491.69
2023-01-28T14:09:45.979Z,156482.41
2023-01-28T14:12:56.919Z,156481.09
2023-01-28T14:15:44.042Z,156479.75
2023-01-28T14:18:33.252Z,156478.44
2023-01-28T14:21:03.240Z,156471.84
2023-01-28T14:23:32.714Z,156465.22
2023-01-28T14:26:19.373Z,156462.59
2023-01-28T14:29:06.449Z,156461.22
2023-01-28T14:31:35.979Z,156454.59
2023-01-28T14:34:30.267Z,156461.22
2023-01-28T14:37:02.181Z,156444.03
2023-01-28T14:39:33.392Z,156458.59
2023-01-28T14:42:03.139Z,156461.22
2023-01-28T14:44:35.519Z,156459.91
2023-01-28T14:47:15.305Z,156449.34
2023-01-28T14:49:43.896Z,156450.66
2023-01-28T14:52:33.979Z,156449.34
2023-01-28T14:55:18.606Z,156459.91
2023-01-28T14:57:54.238Z,156430.78
2023-01-28T15:00:24.232Z,156442.72
2023-01-28T15:02:52.291Z,156429.47
2023-01-28T15:05:26.852Z,156432.09
2023-01-28T15:07:56.375Z,156430.78
2023-01-28T15:10:32.245Z,156413.59
2023-01-28T15:13:14.479Z,156436.09
2023-01-28T15:15:47.261Z,156437.41
2023-01-28T15:18:27.712Z,156417.56
2023-01-28T15:20:56.968Z,156436.09
2023-01-28T15:23:28.878Z,156428.16
2023-01-28T15:25:57.232Z,156432.09
2023-01-28T15:28:31.921Z,156430.78
2023-01-28T15:31:00.611Z,156428.16
2023-01-28T15:33:29.013Z,156438.72
2023-01-28T15:35:59.284Z,156429.47
2023-01-28T15:38:28.620Z,156429.47
2023-01-28T15:40:57.003Z,156430.78
2023-01-28T15:43:30.669Z,156414.91
2023-01-28T15:45:59.494Z,156417.56
2023-01-28T15:48:32.860Z,156412.25
2023-01-28T15:51:09.692Z,156414.91
2023-01-28T15:53:43.545Z,156418.88
2023-01-28T15:56:14.539Z,156422.84
2023-01-28T15:58:43.416Z,156432.09
2023-01-28T16:01:11.769Z,156437.41
2023-01-28T16:03:42.249Z,156440.03
2023-01-28T16:06:12.667Z,156426.81
2023-01-28T16:08:59.265Z,156430.78
2023-01-28T16:11:28.961Z,156438.72
2023-01-28T16:13:57.439Z,156424.16
2023-01-28T16:16:31.075Z,156412.25
2023-01-28T16:18:59.042Z,156422.84
2023-01-28T16:21:29.577Z,156407.00
2023-01-28T16:24:21.043Z,156422.84
2023-01-28T16:27:27.007Z,156428.16
2023-01-28T16:29:55.685Z,156422.84
2023-01-28T16:32:45.030Z,156414.91
2023-01-28T16:35:22.181Z,156414.91
2023-01-28T16:37:50.788Z,156409.63
2023-01-28T16:40:21.630Z,156412.25
2023-01-28T16:42:50.498Z,156391.06
2023-01-28T16:45:26.041Z,156384.44
2023-01-28T16:47:54.497Z,156391.06
2023-01-28T16:50:23.112Z,156396.38
2023-01-28T16:52:52.608Z,156393.75
2023-01-28T16:55:21.674Z,156412.25
2023-01-28T16:57:52.944Z,156404.31
2023-01-28T17:00:26.562Z,156413.59
2023-01-28T17:02:55.212Z,156420.22
2023-01-28T17:05:23.983Z,156426.81
2023-01-28T17:07:55.384Z,156436.09
2023-01-28T17:10:23.177Z,156430.78
2023-01-28T17:12:51.651Z,156436.09
2023-01-28T17:15:20.262Z,156432.09
2023-01-28T17:17:49.988Z,156438.72
2023-01-28T17:20:17.921Z,156436.09
2023-01-28T17:22:46.512Z,156440.03
2023-01-28T17:25:15.180Z,156438.72
2023-01-28T17:27:43.554Z,156430.78
2023-01-28T17:30:11.683Z,156420.22
2023-01-28T17:32:39.953Z,156425.47
2023-01-28T17:35:07.969Z,156438.72
2023-01-28T17:37:38.575Z,156428.16
2023-01-28T17:40:07.211Z,156421.53
2023-01-28T17:42:35.656Z,156429.47
2023-01-28T17:45:04.310Z,156420.22
2023-01-28T17:47:32.507Z,156413.59
2023-01-28T17:50:01.053Z,156404.31
2023-01-28T17:52:30.331Z,156410.94
2023-01-28T17:54:58.182Z,156407.00
2023-01-28T17:57:26.610Z,156403.00
2023-01-28T17:59:54.495Z,156400.38
2023-01-28T18:02:22.791Z,156410.94
2023-01-28T18:04:51.497Z,156421.53
2023-01-28T18:07:19.778Z,156424.16
2023-01-28T18:09:47.587Z,156432.09
2023-01-28T18:12:16.512Z,156426.81
2023-01-28T18:14:44.412Z,156424.16
2023-01-28T18:17:12.815Z,156429.47
2023-01-28T18:19:40.616Z,156429.47
2023-01-28T18:22:09.227Z,156428.16
2023-01-28T18:24:36.967Z,156434.78
2023-01-28T18:27:05.035Z,156434.78
2023-01-28T18:29:32.812Z,156428.16
2023-01-28T18:32:01.094Z,156418.88
2023-01-28T18:34:32.121Z,156414.91
2023-01-28T18:37:00.961Z,156408.31
2023-01-28T18:39:32.507Z,156413.59
2023-01-28T18:42:01.114Z,156414.91
2023-01-28T18:44:32.884Z,156414.91
2023-01-28T18:47:01.269Z,156400.38
2023-01-28T18:49:29.124Z,156381.81
2023-01-28T18:51:57.565Z,156383.13
2023-01-28T18:54:25.520Z,156379.19
2023-01-28T18:56:53.988Z,156385.81
2023-01-28T18:59:22.571Z,156381.81
2023-01-28T19:01:51.410Z,156364.66
2023-01-28T19:04:19.950Z,156363.28
2023-01-28T19:06:49.286Z,156360.66
2023-01-28T19:09:18.421Z,156355.34
2023-01-28T19:11:48.954Z,156348.72
2023-01-28T19:14:17.441Z,156314.31
2023-01-28T19:16:46.109Z,156342.13
2023-01-28T19:19:14.389Z,156343.47
2023-01-28T19:21:42.387Z,156338.16
2023-01-28T19:24:13.982Z,156327.56
2023-01-28T19:26:45.291Z,156326.25
2023-01-28T19:29:15.905Z,156327.56
2023-01-28T19:31:48.754Z,156317.00
2023-01-28T19:34:17.099Z,156322.31
2023-01-28T19:36:45.735Z,156322.31
2023-01-28T19:39:14.474Z,156314.31
2023-01-28T19:41:42.979Z,156320.94
2023-01-28T19:44:11.296Z,156332.88
2023-01-28T19:46:41.522Z,156330.25
2023-01-28T19:49:10.846Z,156339.47
2023-01-28T19:51:39.185Z,156338.16
2023-01-28T19:54:07.057Z,156332.88
2023-01-28T19:56:36.624Z,156334.19
2023-01-28T19:59:05.259Z,156343.47
2023-01-28T20:01:33.919Z,156328.88
2023-01-28T20:04:02.582Z,156335.50
2023-01-28T20:06:32.366Z,156330.25
2023-01-28T20:09:06.466Z,156332.88
2023-01-28T20:11:35.769Z,156326.25
2023-01-28T20:14:03.691Z,156317.00
2023-01-28T20:16:34.143Z,156302.44
2023-01-28T20:19:07.036Z,156298.47
2023-01-28T20:21:36.395Z,156294.53
2023-01-28T20:24:05.131Z,156295.84
2023-01-28T20:26:36.163Z,156298.47
2023-01-28T20:29:10.213Z,156293.16
2023-01-28T20:31:40.122Z,156281.28
2023-01-28T20:34:08.435Z,156290.53
2023-01-28T20:36:36.317Z,156290.53
2023-01-28T20:39:04.589Z,156290.53
2023-01-28T20:41:32.698Z,156290.53
2023-01-28T20:44:00.548Z,156278.59
2023-01-28T20:46:31.263Z,156287.91
2023-01-28T20:49:01.200Z,156298.47
2023-01-28T20:51:32.095Z,156282.59
2023-01-28T20:54:02.377Z,156286.53
2023-01-28T20:56:31.567Z,156281.28
2023-01-28T20:59:02.561Z,156274.66
2023-01-28T21:01:34.383Z,156279.91
2023-01-28T21:04:03.144Z,156279.91
2023-01-28T21:06:32.625Z,156264.06
2023-01-28T21:09:01.052Z,156273.34
2023-01-28T21:11:29.772Z,156273.34
2023-01-28T21:13:58.060Z,156270.69
2023-01-28T21:16:26.937Z,156274.66
2023-01-28T21:18:55.445Z,156274.66
2023-01-28T21:21:27.078Z,156268.06
2023-01-28T21:23:58.093Z,156285.22
2023-01-28T21:26:27.411Z,156269.38
2023-01-28T21:28:56.433Z,156273.34
2023-01-28T21:31:26.847Z,156258.75
2023-01-28T21:33:58.963Z,156256.13
2023-01-28T21:36:27.960Z,156242.91
2023-01-28T21:38:58.621Z,156248.19
2023-01-28T21:41:28.076Z,156254.81
2023-01-28T21:43:57.820Z,156256.13
2023-01-28T21:46:29.336Z,156237.59
2023-01-28T21:48:59.444Z,156244.22
2023-01-28T21:51:36.406Z,156238.97
2023-01-28T21:54:11.061Z,156232.34
2023-01-28T21:56:39.727Z,156233.66
2023-01-28T21:59:26.523Z,156221.72
2023-01-28T22:01:59.590Z,156208.50
2023-01-28T22:04:29.726Z,156200.56
2023-01-28T22:06:58.054Z,156191.31
2023-01-28T22:09:27.070Z,156176.78
2023-01-28T22:11:56.168Z,156179.41
2023-01-28T22:14:23.788Z,156170.16
2023-01-28T22:16:52.398Z,156170.16
2023-01-28T22:19:20.225Z,156178.09
2023-01-28T22:21:48.731Z,156178.09
2023-01-28T22:24:18.816Z,156170.16
2023-01-28T22:26:47.935Z,156186.03
2023-01-28T22:29:17.788Z,156184.72
2023-01-28T22:31:50.325Z,156178.09
2023-01-28T22:34:19.647Z,156187.34
2023-01-28T22:36:48.281Z,156191.31
2023-01-28T22:39:17.514Z,156191.31
2023-01-28T22:41:45.845Z,156182.03
2023-01-28T22:44:14.139Z,156183.41
2023-01-28T22:46:42.912Z,156162.25
2023-01-28T22:49:12.301Z,156187.34
2023-01-28T22:51:40.662Z,156192.66
2023-01-28T22:54:09.673Z,156188.66
2023-01-28T22:56:38.531Z,156187.34
2023-01-28T22:59:06.818Z,156184.72
2023-01-28T23:01:36.412Z,156184.72
2023-01-28T23:04:04.835Z,156184.72
2023-01-28T23:06:33.855Z,156188.66
2023-01-28T23:09:02.324Z,156175.44
2023-01-28T23:11:30.898Z,156175.44
2023-01-28T23:14:19.407Z,156174.09
2023-01-28T23:17:06.915Z,156176.78
2023-01-28T23:19:54.039Z,156171.47
2023-01-28T23:22:47.216Z,156163.56
2023-01-28T23:25:15.966Z,156159.56
2023-01-28T23:27:44.749Z,156150.31
2023-01-28T23:30:13.696Z,156150.31
2023-01-28T23:32:46.394Z,156152.94
2023-01-28T23:35:14.096Z,156152.94
2023-01-28T23:37:42.354Z,156137.09
2023-01-28T23:40:10.935Z,156146.34
2023-01-28T23:42:39.609Z,156151.63
2023-01-28T23:45:08.353Z,156129.16
2023-01-28T23:47:37.127Z,156143.72
2023-01-28T23:50:05.389Z,156135.78
2023-01-28T23:52:33.917Z,156134.47
2023-01-28T23:55:01.638Z,156139.72
2023-01-28T23:57:30.289Z,156134.47
2023-01-28T23:59:58.328Z,156133.09
